Williamsville, Virginia
Current Conditions -  °F | °C
As of 3:15 AM on Thursday 29 Jan 2015 (Local Time) from KHSP Reporting Station
Clear Clear  
Wind Chill: 16°   Ceiling: Unl
Heat Index: 26°   Visibility: 10mi
Dew Point:   Wind: 12mph
Humidity: 45%   Direction: 190°S
Pressure: 30.12"   Gusts: NA
Location:  38.2°N, 79.57°W
Report Text: KHSP 290815Z AUTO 19010KT 10SM CLR M03/M14 A3012 RMK AO2 T10311136
Loading
Personal Weather Stations






























Interactive Weather Map New forecast layout! Learn more

10-Day Weather Forecast

Advertisements
Track Severe Weather on mobile